sensor_id;sensor_type;location;lat;lon;timestamp;P1;durP1;ratioP1;P2;durP2;ratioP2
20022;SDS011;10172;42.054;24.546;2022-07-29T00:00:10;6.63;;;5.50;;
20022;SDS011;10172;42.054;24.546;2022-07-29T00:02:36;7.55;;;5.25;;
20022;SDS011;10172;42.054;24.546;2022-07-29T00:05:02;7.80;;;5.53;;
20022;SDS011;10172;42.054;24.546;2022-07-29T00:07:28;8.43;;;5.93;;
20022;SDS011;10172;42.054;24.546;2022-07-29T00:09:54;7.43;;;5.53;;
20022;SDS011;10172;42.054;24.546;2022-07-29T00:12:20;10.98;;;5.80;;
20022;SDS011;10172;42.054;24.546;2022-07-29T00:14:47;6.90;;;5.30;;
20022;SDS011;10172;42.054;24.546;2022-07-29T00:17:12;8.20;;;5.72;;
20022;SDS011;10172;42.054;24.546;2022-07-29T00:19:37;10.30;;;5.72;;
20022;SDS011;10172;42.054;24.546;2022-07-29T00:22:03;8.57;;;5.85;;
20022;SDS011;10172;42.054;24.546;2022-07-29T00:24:28;7.00;;;5.50;;
20022;SDS011;10172;42.054;24.546;2022-07-29T00:26:54;7.15;;;5.60;;
20022;SDS011;10172;42.054;24.546;2022-07-29T00:29:19;7.50;;;6.07;;
20022;SDS011;10172;42.054;24.546;2022-07-29T00:31:45;8.27;;;6.10;;
20022;SDS011;10172;42.054;24.546;2022-07-29T00:34:10;8.20;;;6.15;;
20022;SDS011;10172;42.054;24.546;2022-07-29T00:36:54;10.30;;;6.03;;
20022;SDS011;10172;42.054;24.546;2022-07-29T00:39:20;9.05;;;6.30;;
20022;SDS011;10172;42.054;24.546;2022-07-29T00:41:45;8.85;;;6.07;;
20022;SDS011;10172;42.054;24.546;2022-07-29T00:44:10;7.93;;;6.25;;
20022;SDS011;10172;42.054;24.546;2022-07-29T00:46:36;6.47;;;5.80;;
20022;SDS011;10172;42.054;24.546;2022-07-29T00:49:01;8.88;;;6.38;;
20022;SDS011;10172;42.054;24.546;2022-07-29T00:51:27;7.88;;;6.38;;
20022;SDS011;10172;42.054;24.546;2022-07-29T00:53:53;6.57;;;5.88;;
20022;SDS011;10172;42.054;24.546;2022-07-29T00:56:19;8.48;;;6.35;;
20022;SDS011;10172;42.054;24.546;2022-07-29T00:58:45;9.20;;;6.30;;
20022;SDS011;10172;42.054;24.546;2022-07-29T01:01:13;10.02;;;6.15;;
20022;SDS011;10172;42.054;24.546;2022-07-29T01:03:38;8.15;;;5.88;;
20022;SDS011;10172;42.054;24.546;2022-07-29T01:06:04;8.23;;;6.45;;
20022;SDS011;10172;42.054;24.546;2022-07-29T01:08:30;8.10;;;5.75;;
20022;SDS011;10172;42.054;24.546;2022-07-29T01:10:57;7.93;;;6.30;;
20022;SDS011;10172;42.054;24.546;2022-07-29T01:13:25;9.88;;;6.07;;
20022;SDS011;10172;42.054;24.546;2022-07-29T01:15:52;9.13;;;6.40;;
20022;SDS011;10172;42.054;24.546;2022-07-29T01:18:38;7.93;;;6.32;;
20022;SDS011;10172;42.054;24.546;2022-07-29T01:23:40;9.00;;;6.90;;
20022;SDS011;10172;42.054;24.546;2022-07-29T01:32:02;8.80;;;6.70;;
20022;SDS011;10172;42.054;24.546;2022-07-29T01:34:31;9.93;;;6.40;;
20022;SDS011;10172;42.054;24.546;2022-07-29T01:39:54;8.73;;;6.80;;
20022;SDS011;10172;42.054;24.546;2022-07-29T01:42:29;11.48;;;6.95;;
20022;SDS011;10172;42.054;24.546;2022-07-29T01:45:10;10.02;;;6.00;;
20022;SDS011;10172;42.054;24.546;2022-07-29T01:47:43;7.72;;;6.28;;
20022;SDS011;10172;42.054;24.546;2022-07-29T01:50:16;9.38;;;6.68;;
20022;SDS011;10172;42.054;24.546;2022-07-29T01:52:53;10.27;;;6.68;;
20022;SDS011;10172;42.054;24.546;2022-07-29T01:55:25;11.15;;;6.82;;
20022;SDS011;10172;42.054;24.546;2022-07-29T01:57:56;8.48;;;6.78;;
20022;SDS011;10172;42.054;24.546;2022-07-29T02:00:23;8.02;;;5.90;;
20022;SDS011;10172;42.054;24.546;2022-07-29T02:02:50;8.88;;;6.25;;
20022;SDS011;10172;42.054;24.546;2022-07-29T02:05:18;7.90;;;6.90;;
20022;SDS011;10172;42.054;24.546;2022-07-29T02:07:47;11.43;;;7.25;;
20022;SDS011;10172;42.054;24.546;2022-07-29T02:10:14;9.05;;;7.20;;
20022;SDS011;10172;42.054;24.546;2022-07-29T02:12:43;12.43;;;7.00;;
20022;SDS011;10172;42.054;24.546;2022-07-29T02:15:11;11.05;;;7.05;;
20022;SDS011;10172;42.054;24.546;2022-07-29T02:17:44;12.35;;;7.22;;
20022;SDS011;10172;42.054;24.546;2022-07-29T02:20:19;8.13;;;7.25;;
20022;SDS011;10172;42.054;24.546;2022-07-29T02:22:44;10.48;;;7.07;;
20022;SDS011;10172;42.054;24.546;2022-07-29T02:25:12;9.40;;;6.93;;
20022;SDS011;10172;42.054;24.546;2022-07-29T02:27:39;9.43;;;7.50;;
20022;SDS011;10172;42.054;24.546;2022-07-29T02:30:07;9.73;;;7.43;;
20022;SDS011;10172;42.054;24.546;2022-07-29T02:32:35;9.40;;;7.47;;
20022;SDS011;10172;42.054;24.546;2022-07-29T02:35:02;9.65;;;7.47;;
20022;SDS011;10172;42.054;24.546;2022-07-29T02:37:28;9.70;;;8.15;;
20022;SDS011;10172;42.054;24.546;2022-07-29T02:39:55;10.18;;;7.53;;
20022;SDS011;10172;42.054;24.546;2022-07-29T02:42:23;10.05;;;7.15;;
20022;SDS011;10172;42.054;24.546;2022-07-29T02:44:51;11.80;;;7.30;;
20022;SDS011;10172;42.054;24.546;2022-07-29T02:47:26;9.48;;;8.27;;
20022;SDS011;10172;42.054;24.546;2022-07-29T02:57:42;9.38;;;6.97;;
20022;SDS011;10172;42.054;24.546;2022-07-29T03:00:11;9.75;;;6.93;;
20022;SDS011;10172;42.054;24.546;2022-07-29T03:02:39;9.93;;;7.78;;
20022;SDS011;10172;42.054;24.546;2022-07-29T03:05:09;11.73;;;7.45;;
20022;SDS011;10172;42.054;24.546;2022-07-29T03:07:38;9.55;;;7.03;;
20022;SDS011;10172;42.054;24.546;2022-07-29T03:10:06;12.63;;;7.53;;
20022;SDS011;10172;42.054;24.546;2022-07-29T03:12:32;9.82;;;7.53;;
20022;SDS011;10172;42.054;24.546;2022-07-29T03:14:58;11.60;;;7.88;;
20022;SDS011;10172;42.054;24.546;2022-07-29T03:17:25;9.38;;;7.45;;
20022;SDS011;10172;42.054;24.546;2022-07-29T03:19:51;10.60;;;7.07;;
20022;SDS011;10172;42.054;24.546;2022-07-29T03:22:17;9.35;;;7.40;;
20022;SDS011;10172;42.054;24.546;2022-07-29T03:24:43;8.02;;;6.97;;
20022;SDS011;10172;42.054;24.546;2022-07-29T03:27:08;10.55;;;7.63;;
20022;SDS011;10172;42.054;24.546;2022-07-29T03:29:33;8.73;;;7.13;;
20022;SDS011;10172;42.054;24.546;2022-07-29T03:32:00;10.85;;;7.10;;
20022;SDS011;10172;42.054;24.546;2022-07-29T03:34:27;8.77;;;7.10;;
20022;SDS011;10172;42.054;24.546;2022-07-29T03:36:52;11.43;;;7.63;;
20022;SDS011;10172;42.054;24.546;2022-07-29T03:39:19;10.27;;;7.45;;
20022;SDS011;10172;42.054;24.546;2022-07-29T03:41:48;10.70;;;7.75;;
20022;SDS011;10172;42.054;24.546;2022-07-29T03:44:17;10.13;;;7.38;;
20022;SDS011;10172;42.054;24.546;2022-07-29T03:46:44;9.07;;;6.93;;
20022;SDS011;10172;42.054;24.546;2022-07-29T03:49:14;10.10;;;7.85;;
20022;SDS011;10172;42.054;24.546;2022-07-29T03:51:41;11.13;;;7.25;;
20022;SDS011;10172;42.054;24.546;2022-07-29T03:54:07;11.85;;;7.72;;
20022;SDS011;10172;42.054;24.546;2022-07-29T03:56:34;10.07;;;7.20;;
20022;SDS011;10172;42.054;24.546;2022-07-29T03:59:13;10.50;;;6.88;;
20022;SDS011;10172;42.054;24.546;2022-07-29T04:01:39;8.90;;;7.15;;
20022;SDS011;10172;42.054;24.546;2022-07-29T04:04:05;12.57;;;7.30;;
20022;SDS011;10172;42.054;24.546;2022-07-29T04:06:41;8.93;;;7.28;;
20022;SDS011;10172;42.054;24.546;2022-07-29T04:09:07;8.93;;;7.35;;
20022;SDS011;10172;42.054;24.546;2022-07-29T04:11:33;10.20;;;7.47;;
20022;SDS011;10172;42.054;24.546;2022-07-29T04:13:59;8.75;;;7.05;;
20022;SDS011;10172;42.054;24.546;2022-07-29T04:16:24;8.68;;;7.22;;
20022;SDS011;10172;42.054;24.546;2022-07-29T04:18:50;11.80;;;7.70;;
20022;SDS011;10172;42.054;24.546;2022-07-29T04:21:15;9.13;;;7.28;;
20022;SDS011;10172;42.054;24.546;2022-07-29T04:23:41;10.32;;;7.28;;
20022;SDS011;10172;42.054;24.546;2022-07-29T04:26:06;8.77;;;7.65;;
20022;SDS011;10172;42.054;24.546;2022-07-29T04:28:34;7.65;;;6.75;;
20022;SDS011;10172;42.054;24.546;2022-07-29T04:31:00;10.60;;;7.80;;
20022;SDS011;10172;42.054;24.546;2022-07-29T04:33:25;9.05;;;7.38;;
20022;SDS011;10172;42.054;24.546;2022-07-29T04:35:51;9.60;;;7.78;;
20022;SDS011;10172;42.054;24.546;2022-07-29T04:38:16;9.40;;;7.85;;
20022;SDS011;10172;42.054;24.546;2022-07-29T04:40:42;10.75;;;7.85;;
20022;SDS011;10172;42.054;24.546;2022-07-29T04:43:07;10.82;;;8.25;;
20022;SDS011;10172;42.054;24.546;2022-07-29T04:45:32;9.82;;;8.43;;
20022;SDS011;10172;42.054;24.546;2022-07-29T04:47:58;10.88;;;7.95;;
20022;SDS011;10172;42.054;24.546;2022-07-29T04:50:23;10.20;;;7.68;;
20022;SDS011;10172;42.054;24.546;2022-07-29T04:52:49;9.00;;;6.93;;
20022;SDS011;10172;42.054;24.546;2022-07-29T04:55:14;9.23;;;7.57;;
20022;SDS011;10172;42.054;24.546;2022-07-29T04:57:40;9.45;;;7.18;;
20022;SDS011;10172;42.054;24.546;2022-07-29T05:00:05;9.98;;;7.20;;
20022;SDS011;10172;42.054;24.546;2022-07-29T05:02:31;10.70;;;8.45;;
20022;SDS011;10172;42.054;24.546;2022-07-29T05:04:57;13.88;;;8.30;;
20022;SDS011;10172;42.054;24.546;2022-07-29T05:07:23;12.70;;;8.63;;
20022;SDS011;10172;42.054;24.546;2022-07-29T05:09:48;9.90;;;8.63;;
20022;SDS011;10172;42.054;24.546;2022-07-29T05:12:14;14.90;;;9.90;;
20022;SDS011;10172;42.054;24.546;2022-07-29T05:14:39;13.55;;;9.65;;
20022;SDS011;10172;42.054;24.546;2022-07-29T05:17:05;13.13;;;10.25;;
20022;SDS011;10172;42.054;24.546;2022-07-29T05:19:30;12.52;;;10.18;;
20022;SDS011;10172;42.054;24.546;2022-07-29T05:21:56;11.50;;;9.85;;
20022;SDS011;10172;42.054;24.546;2022-07-29T05:24:22;11.52;;;9.13;;
20022;SDS011;10172;42.054;24.546;2022-07-29T05:26:47;13.15;;;9.10;;
20022;SDS011;10172;42.054;24.546;2022-07-29T05:29:13;14.27;;;9.73;;
20022;SDS011;10172;42.054;24.546;2022-07-29T05:31:38;16.42;;;9.55;;
20022;SDS011;10172;42.054;24.546;2022-07-29T05:34:03;11.27;;;9.90;;
20022;SDS011;10172;42.054;24.546;2022-07-29T05:36:29;13.20;;;9.93;;
20022;SDS011;10172;42.054;24.546;2022-07-29T05:38:54;16.38;;;10.73;;
20022;SDS011;10172;42.054;24.546;2022-07-29T05:41:20;13.82;;;10.27;;
20022;SDS011;10172;42.054;24.546;2022-07-29T05:43:46;12.73;;;9.15;;
20022;SDS011;10172;42.054;24.546;2022-07-29T05:46:11;12.32;;;9.13;;
20022;SDS011;10172;42.054;24.546;2022-07-29T05:48:38;14.32;;;9.43;;
20022;SDS011;10172;42.054;24.546;2022-07-29T05:51:04;10.07;;;9.00;;
20022;SDS011;10172;42.054;24.546;2022-07-29T05:53:30;13.20;;;9.07;;
20022;SDS011;10172;42.054;24.546;2022-07-29T05:55:55;11.00;;;9.32;;
20022;SDS011;10172;42.054;24.546;2022-07-29T05:58:21;10.50;;;8.70;;
20022;SDS011;10172;42.054;24.546;2022-07-29T06:00:46;10.70;;;8.93;;
20022;SDS011;10172;42.054;24.546;2022-07-29T06:03:12;10.35;;;8.52;;
20022;SDS011;10172;42.054;24.546;2022-07-29T06:05:37;12.18;;;8.93;;
20022;SDS011;10172;42.054;24.546;2022-07-29T06:08:03;10.50;;;8.60;;
20022;SDS011;10172;42.054;24.546;2022-07-29T06:10:32;12.80;;;8.52;;
20022;SDS011;10172;42.054;24.546;2022-07-29T06:12:58;9.65;;;8.35;;
20022;SDS011;10172;42.054;24.546;2022-07-29T06:15:23;14.30;;;9.13;;
20022;SDS011;10172;42.054;24.546;2022-07-29T06:17:48;11.48;;;8.68;;
20022;SDS011;10172;42.054;24.546;2022-07-29T06:20:14;10.95;;;7.97;;
20022;SDS011;10172;42.054;24.546;2022-07-29T06:22:39;9.93;;;7.82;;
20022;SDS011;10172;42.054;24.546;2022-07-29T06:25:05;11.30;;;7.88;;
20022;SDS011;10172;42.054;24.546;2022-07-29T06:27:31;9.50;;;8.13;;
20022;SDS011;10172;42.054;24.546;2022-07-29T06:29:56;9.73;;;8.63;;
20022;SDS011;10172;42.054;24.546;2022-07-29T06:32:21;12.80;;;7.95;;
20022;SDS011;10172;42.054;24.546;2022-07-29T06:34:47;9.18;;;7.40;;
20022;SDS011;10172;42.054;24.546;2022-07-29T06:37:12;10.38;;;7.65;;
20022;SDS011;10172;42.054;24.546;2022-07-29T06:39:38;8.30;;;6.78;;
20022;SDS011;10172;42.054;24.546;2022-07-29T06:42:03;11.52;;;7.95;;
20022;SDS011;10172;42.054;24.546;2022-07-29T06:44:29;8.55;;;7.05;;
20022;SDS011;10172;42.054;24.546;2022-07-29T06:46:55;8.13;;;7.18;;
20022;SDS011;10172;42.054;24.546;2022-07-29T06:49:21;9.27;;;7.15;;
20022;SDS011;10172;42.054;24.546;2022-07-29T06:51:48;8.32;;;7.05;;
20022;SDS011;10172;42.054;24.546;2022-07-29T06:54:13;9.38;;;6.70;;
20022;SDS011;10172;42.054;24.546;2022-07-29T06:56:39;9.93;;;7.50;;
20022;SDS011;10172;42.054;24.546;2022-07-29T06:59:09;9.48;;;6.13;;
20022;SDS011;10172;42.054;24.546;2022-07-29T07:01:36;9.40;;;7.43;;
20022;SDS011;10172;42.054;24.546;2022-07-29T07:04:03;8.10;;;6.60;;
20022;SDS011;10172;42.054;24.546;2022-07-29T07:06:29;10.02;;;6.95;;
20022;SDS011;10172;42.054;24.546;2022-07-29T07:08:54;10.52;;;6.97;;
20022;SDS011;10172;42.054;24.546;2022-07-29T07:11:20;9.45;;;6.60;;
20022;SDS011;10172;42.054;24.546;2022-07-29T07:13:45;9.75;;;6.78;;
20022;SDS011;10172;42.054;24.546;2022-07-29T07:16:10;9.35;;;6.95;;
20022;SDS011;10172;42.054;24.546;2022-07-29T07:18:36;10.43;;;6.72;;
20022;SDS011;10172;42.054;24.546;2022-07-29T07:21:01;9.55;;;6.57;;
20022;SDS011;10172;42.054;24.546;2022-07-29T07:23:27;9.95;;;6.68;;
20022;SDS011;10172;42.054;24.546;2022-07-29T07:25:52;7.82;;;6.43;;
20022;SDS011;10172;42.054;24.546;2022-07-29T07:28:18;10.13;;;6.95;;
20022;SDS011;10172;42.054;24.546;2022-07-29T07:30:44;8.43;;;6.75;;
20022;SDS011;10172;42.054;24.546;2022-07-29T07:33:10;11.13;;;6.80;;
20022;SDS011;10172;42.054;24.546;2022-07-29T07:35:35;8.05;;;6.97;;
20022;SDS011;10172;42.054;24.546;2022-07-29T07:38:01;8.05;;;6.65;;
20022;SDS011;10172;42.054;24.546;2022-07-29T07:40:26;8.77;;;6.90;;
20022;SDS011;10172;42.054;24.546;2022-07-29T07:42:52;9.35;;;6.78;;
20022;SDS011;10172;42.054;24.546;2022-07-29T07:45:17;9.48;;;6.50;;
20022;SDS011;10172;42.054;24.546;2022-07-29T07:47:43;10.00;;;6.68;;
20022;SDS011;10172;42.054;24.546;2022-07-29T07:50:09;9.20;;;6.15;;
20022;SDS011;10172;42.054;24.546;2022-07-29T07:52:45;7.88;;;6.10;;
20022;SDS011;10172;42.054;24.546;2022-07-29T07:55:12;9.10;;;6.45;;
20022;SDS011;10172;42.054;24.546;2022-07-29T07:57:38;13.02;;;7.07;;
20022;SDS011;10172;42.054;24.546;2022-07-29T08:00:03;9.73;;;5.90;;
20022;SDS011;10172;42.054;24.546;2022-07-29T08:02:29;7.80;;;5.95;;
20022;SDS011;10172;42.054;24.546;2022-07-29T08:04:54;7.90;;;6.20;;
20022;SDS011;10172;42.054;24.546;2022-07-29T08:07:20;9.13;;;6.30;;
20022;SDS011;10172;42.054;24.546;2022-07-29T08:09:45;9.82;;;6.53;;
20022;SDS011;10172;42.054;24.546;2022-07-29T08:12:11;11.15;;;6.60;;
20022;SDS011;10172;42.054;24.546;2022-07-29T08:14:36;10.60;;;6.05;;
20022;SDS011;10172;42.054;24.546;2022-07-29T08:17:02;11.77;;;6.40;;
20022;SDS011;10172;42.054;24.546;2022-07-29T08:19:27;11.85;;;7.07;;
20022;SDS011;10172;42.054;24.546;2022-07-29T08:21:53;9.30;;;6.50;;
20022;SDS011;10172;42.054;24.546;2022-07-29T08:24:18;7.80;;;5.60;;
20022;SDS011;10172;42.054;24.546;2022-07-29T08:27:02;6.95;;;5.85;;
20022;SDS011;10172;42.054;24.546;2022-07-29T08:29:28;8.32;;;6.35;;
20022;SDS011;10172;42.054;24.546;2022-07-29T08:31:53;9.85;;;6.03;;
20022;SDS011;10172;42.054;24.546;2022-07-29T08:34:19;11.20;;;5.80;;
20022;SDS011;10172;42.054;24.546;2022-07-29T08:36:44;7.28;;;5.43;;
20022;SDS011;10172;42.054;24.546;2022-07-29T08:39:10;7.78;;;5.53;;
20022;SDS011;10172;42.054;24.546;2022-07-29T08:41:35;7.72;;;5.63;;
20022;SDS011;10172;42.054;24.546;2022-07-29T08:44:01;9.27;;;5.70;;
20022;SDS011;10172;42.054;24.546;2022-07-29T08:46:26;7.50;;;5.25;;
20022;SDS011;10172;42.054;24.546;2022-07-29T08:48:52;6.53;;;4.72;;
20022;SDS011;10172;42.054;24.546;2022-07-29T08:51:18;6.85;;;4.80;;
20022;SDS011;10172;42.054;24.546;2022-07-29T08:53:46;6.60;;;5.32;;
20022;SDS011;10172;42.054;24.546;2022-07-29T08:56:13;7.00;;;5.00;;
20022;SDS011;10172;42.054;24.546;2022-07-29T08:58:41;7.18;;;5.00;;
20022;SDS011;10172;42.054;24.546;2022-07-29T09:01:07;7.47;;;4.60;;
20022;SDS011;10172;42.054;24.546;2022-07-29T09:03:36;12.88;;;4.55;;
20022;SDS011;10172;42.054;24.546;2022-07-29T09:06:03;7.47;;;4.72;;
20022;SDS011;10172;42.054;24.546;2022-07-29T09:08:30;5.30;;;4.50;;
20022;SDS011;10172;42.054;24.546;2022-07-29T09:10:56;6.65;;;4.05;;
20022;SDS011;10172;42.054;24.546;2022-07-29T09:13:23;6.85;;;4.82;;
20022;SDS011;10172;42.054;24.546;2022-07-29T09:15:49;6.65;;;4.18;;
20022;SDS011;10172;42.054;24.546;2022-07-29T09:21:15;6.22;;;4.30;;
20022;SDS011;10172;42.054;24.546;2022-07-29T09:26:40;7.80;;;4.68;;
20022;SDS011;10172;42.054;24.546;2022-07-29T09:29:10;5.10;;;3.95;;
20022;SDS011;10172;42.054;24.546;2022-07-29T09:31:42;6.88;;;4.00;;
20022;SDS011;10172;42.054;24.546;2022-07-29T09:34:10;5.82;;;4.28;;
20022;SDS011;10172;42.054;24.546;2022-07-29T09:36:40;4.95;;;3.92;;
20022;SDS011;10172;42.054;24.546;2022-07-29T09:39:09;7.45;;;4.60;;
20022;SDS011;10172;42.054;24.546;2022-07-29T09:41:48;4.32;;;3.60;;
20022;SDS011;10172;42.054;24.546;2022-07-29T09:44:17;6.47;;;4.07;;
20022;SDS011;10172;42.054;24.546;2022-07-29T09:49:31;6.32;;;4.03;;
20022;SDS011;10172;42.054;24.546;2022-07-29T09:52:05;5.78;;;3.75;;
20022;SDS011;10172;42.054;24.546;2022-07-29T09:54:31;12.35;;;3.50;;
20022;SDS011;10172;42.054;24.546;2022-07-29T09:57:02;6.18;;;3.40;;
20022;SDS011;10172;42.054;24.546;2022-07-29T09:59:32;7.80;;;3.30;;
20022;SDS011;10172;42.054;24.546;2022-07-29T10:01:58;5.00;;;3.10;;
20022;SDS011;10172;42.054;24.546;2022-07-29T10:04:35;7.53;;;2.67;;
20022;SDS011;10172;42.054;24.546;2022-07-29T10:07:02;5.22;;;3.17;;
20022;SDS011;10172;42.054;24.546;2022-07-29T10:09:30;6.85;;;2.95;;
20022;SDS011;10172;42.054;24.546;2022-07-29T10:12:11;4.32;;;2.45;;
20022;SDS011;10172;42.054;24.546;2022-07-29T10:14:39;4.30;;;2.60;;
20022;SDS011;10172;42.054;24.546;2022-07-29T10:17:06;3.72;;;2.50;;
20022;SDS011;10172;42.054;24.546;2022-07-29T10:19:32;6.20;;;2.72;;
20022;SDS011;10172;42.054;24.546;2022-07-29T10:22:00;4.07;;;2.38;;
20022;SDS011;10172;42.054;24.546;2022-07-29T10:24:28;3.33;;;2.40;;
20022;SDS011;10172;42.054;24.546;2022-07-29T10:26:55;4.68;;;2.13;;
20022;SDS011;10172;42.054;24.546;2022-07-29T10:29:21;3.88;;;2.00;;
20022;SDS011;10172;42.054;24.546;2022-07-29T10:37:56;4.40;;;2.10;;
20022;SDS011;10172;42.054;24.546;2022-07-29T10:43:59;5.20;;;2.08;;
20022;SDS011;10172;42.054;24.546;2022-07-29T10:46:25;11.63;;;2.83;;
20022;SDS011;10172;42.054;24.546;2022-07-29T10:57:11;2.30;;;1.95;;
20022;SDS011;10172;42.054;24.546;2022-07-29T10:59:46;4.13;;;2.00;;
20022;SDS011;10172;42.054;24.546;2022-07-29T11:07:23;2.60;;;1.98;;
20022;SDS011;10172;42.054;24.546;2022-07-29T11:15:03;2.97;;;1.88;;
20022;SDS011;10172;42.054;24.546;2022-07-29T11:28:34;2.63;;;1.85;;
20022;SDS011;10172;42.054;24.546;2022-07-29T11:31:04;3.95;;;1.90;;
20022;SDS011;10172;42.054;24.546;2022-07-29T11:33:33;7.70;;;2.00;;
20022;SDS011;10172;42.054;24.546;2022-07-29T11:36:12;1.92;;;1.75;;
20022;SDS011;10172;42.054;24.546;2022-07-29T11:38:39;3.78;;;1.80;;
20022;SDS011;10172;42.054;24.546;2022-07-29T11:43:52;2.80;;;1.50;;
20022;SDS011;10172;42.054;24.546;2022-07-29T11:49:13;3.47;;;1.67;;
20022;SDS011;10172;42.054;24.546;2022-07-29T11:51:49;2.53;;;1.90;;
20022;SDS011;10172;42.054;24.546;2022-07-29T11:54:16;2.63;;;2.10;;
20022;SDS011;10172;42.054;24.546;2022-07-29T11:56:47;2.50;;;1.98;;
20022;SDS011;10172;42.054;24.546;2022-07-29T11:59:12;2.80;;;1.95;;
20022;SDS011;10172;42.054;24.546;2022-07-29T12:01:51;2.10;;;1.80;;
20022;SDS011;10172;42.054;24.546;2022-07-29T12:04:17;4.40;;;1.95;;
20022;SDS011;10172;42.054;24.546;2022-07-29T12:06:43;4.72;;;2.55;;
20022;SDS011;10172;42.054;24.546;2022-07-29T12:09:13;4.00;;;2.10;;
20022;SDS011;10172;42.054;24.546;2022-07-29T12:11:39;3.33;;;2.33;;
20022;SDS011;10172;42.054;24.546;2022-07-29T12:14:04;4.25;;;2.00;;
20022;SDS011;10172;42.054;24.546;2022-07-29T12:16:36;3.38;;;1.80;;
20022;SDS011;10172;42.054;24.546;2022-07-29T12:19:02;4.20;;;1.88;;
20022;SDS011;10172;42.054;24.546;2022-07-29T12:21:50;4.43;;;2.20;;
20022;SDS011;10172;42.054;24.546;2022-07-29T12:24:15;3.83;;;2.15;;
20022;SDS011;10172;42.054;24.546;2022-07-29T12:26:55;4.32;;;2.30;;
20022;SDS011;10172;42.054;24.546;2022-07-29T12:29:24;2.72;;;2.15;;
20022;SDS011;10172;42.054;24.546;2022-07-29T12:31:52;6.45;;;2.13;;
20022;SDS011;10172;42.054;24.546;2022-07-29T12:34:19;3.55;;;1.92;;
20022;SDS011;10172;42.054;24.546;2022-07-29T12:36:48;3.42;;;2.20;;
20022;SDS011;10172;42.054;24.546;2022-07-29T12:39:17;2.83;;;1.80;;
20022;SDS011;10172;42.054;24.546;2022-07-29T12:41:43;3.55;;;2.00;;
20022;SDS011;10172;42.054;24.546;2022-07-29T12:44:09;3.97;;;2.30;;
20022;SDS011;10172;42.054;24.546;2022-07-29T12:46:36;5.00;;;2.08;;
20022;SDS011;10172;42.054;24.546;2022-07-29T12:49:02;4.70;;;3.92;;
20022;SDS011;10172;42.054;24.546;2022-07-29T12:51:35;5.03;;;3.28;;
20022;SDS011;10172;42.054;24.546;2022-07-29T12:54:03;3.97;;;2.40;;
20022;SDS011;10172;42.054;24.546;2022-07-29T12:56:37;3.58;;;2.00;;
20022;SDS011;10172;42.054;24.546;2022-07-29T12:59:13;6.88;;;2.30;;
20022;SDS011;10172;42.054;24.546;2022-07-29T13:01:47;2.42;;;1.70;;
20022;SDS011;10172;42.054;24.546;2022-07-29T13:04:26;2.95;;;2.17;;
20022;SDS011;10172;42.054;24.546;2022-07-29T13:07:00;2.55;;;2.22;;
20022;SDS011;10172;42.054;24.546;2022-07-29T13:09:35;7.82;;;3.50;;
20022;SDS011;10172;42.054;24.546;2022-07-29T13:12:06;3.47;;;2.10;;
20022;SDS011;10172;42.054;24.546;2022-07-29T13:14:40;3.53;;;2.08;;
20022;SDS011;10172;42.054;24.546;2022-07-29T13:17:24;2.08;;;1.88;;
20022;SDS011;10172;42.054;24.546;2022-07-29T13:19:53;4.05;;;2.13;;
20022;SDS011;10172;42.054;24.546;2022-07-29T13:22:30;2.50;;;1.92;;
20022;SDS011;10172;42.054;24.546;2022-07-29T13:24:58;3.53;;;2.20;;
20022;SDS011;10172;42.054;24.546;2022-07-29T13:27:29;3.97;;;2.00;;
20022;SDS011;10172;42.054;24.546;2022-07-29T13:29:58;3.75;;;1.75;;
20022;SDS011;10172;42.054;24.546;2022-07-29T13:32:26;4.28;;;2.10;;
20022;SDS011;10172;42.054;24.546;2022-07-29T13:34:53;4.03;;;2.13;;
20022;SDS011;10172;42.054;24.546;2022-07-29T13:37:19;4.05;;;1.80;;
20022;SDS011;10172;42.054;24.546;2022-07-29T13:39:44;3.83;;;2.08;;
20022;SDS011;10172;42.054;24.546;2022-07-29T13:42:10;3.10;;;1.88;;
20022;SDS011;10172;42.054;24.546;2022-07-29T13:44:38;4.70;;;1.90;;
20022;SDS011;10172;42.054;24.546;2022-07-29T13:47:05;7.45;;;2.28;;
20022;SDS011;10172;42.054;24.546;2022-07-29T13:49:30;4.22;;;2.08;;
20022;SDS011;10172;42.054;24.546;2022-07-29T13:51:56;4.05;;;2.40;;
20022;SDS011;10172;42.054;24.546;2022-07-29T13:54:22;3.35;;;2.10;;
20022;SDS011;10172;42.054;24.546;2022-07-29T13:56:47;2.78;;;1.95;;
20022;SDS011;10172;42.054;24.546;2022-07-29T13:59:12;4.82;;;2.15;;
20022;SDS011;10172;42.054;24.546;2022-07-29T14:01:38;2.58;;;2.05;;
20022;SDS011;10172;42.054;24.546;2022-07-29T14:04:06;2.60;;;1.67;;
20022;SDS011;10172;42.054;24.546;2022-07-29T14:06:32;2.70;;;2.28;;
20022;SDS011;10172;42.054;24.546;2022-07-29T14:08:57;4.80;;;1.90;;
20022;SDS011;10172;42.054;24.546;2022-07-29T14:11:23;4.47;;;2.08;;
20022;SDS011;10172;42.054;24.546;2022-07-29T14:13:48;3.85;;;2.63;;
20022;SDS011;10172;42.054;24.546;2022-07-29T14:16:14;2.92;;;2.05;;
20022;SDS011;10172;42.054;24.546;2022-07-29T14:18:39;3.75;;;1.90;;
20022;SDS011;10172;42.054;24.546;2022-07-29T14:21:05;4.45;;;2.33;;
20022;SDS011;10172;42.054;24.546;2022-07-29T14:23:30;2.70;;;2.03;;
20022;SDS011;10172;42.054;24.546;2022-07-29T14:25:56;2.88;;;2.35;;
20022;SDS011;10172;42.054;24.546;2022-07-29T14:28:21;5.13;;;2.00;;
20022;SDS011;10172;42.054;24.546;2022-07-29T14:30:47;5.63;;;2.00;;
20022;SDS011;10172;42.054;24.546;2022-07-29T14:33:12;2.20;;;1.90;;
20022;SDS011;10172;42.054;24.546;2022-07-29T14:35:38;6.50;;;2.40;;
20022;SDS011;10172;42.054;24.546;2022-07-29T14:38:04;4.20;;;2.92;;
20022;SDS011;10172;42.054;24.546;2022-07-29T14:40:29;2.95;;;2.22;;
20022;SDS011;10172;42.054;24.546;2022-07-29T14:42:55;3.47;;;2.40;;
20022;SDS011;10172;42.054;24.546;2022-07-29T14:45:20;3.50;;;2.20;;
20022;SDS011;10172;42.054;24.546;2022-07-29T14:47:46;2.58;;;2.22;;
20022;SDS011;10172;42.054;24.546;2022-07-29T14:50:11;4.05;;;2.30;;
20022;SDS011;10172;42.054;24.546;2022-07-29T14:52:37;5.85;;;2.55;;
20022;SDS011;10172;42.054;24.546;2022-07-29T14:55:03;4.78;;;2.40;;
20022;SDS011;10172;42.054;24.546;2022-07-29T14:57:29;2.97;;;2.22;;
20022;SDS011;10172;42.054;24.546;2022-07-29T14:59:55;2.78;;;2.42;;
20022;SDS011;10172;42.054;24.546;2022-07-29T15:02:20;4.20;;;2.60;;
20022;SDS011;10172;42.054;24.546;2022-07-29T15:04:46;3.05;;;2.30;;
20022;SDS011;10172;42.054;24.546;2022-07-29T15:07:13;2.72;;;2.00;;
20022;SDS011;10172;42.054;24.546;2022-07-29T15:09:38;4.18;;;2.70;;
20022;SDS011;10172;42.054;24.546;2022-07-29T15:12:04;4.68;;;2.58;;
20022;SDS011;10172;42.054;24.546;2022-07-29T15:14:30;4.97;;;2.58;;
20022;SDS011;10172;42.054;24.546;2022-07-29T15:16:56;7.32;;;2.58;;
20022;SDS011;10172;42.054;24.546;2022-07-29T15:19:22;4.30;;;2.70;;
20022;SDS011;10172;42.054;24.546;2022-07-29T15:21:48;3.28;;;2.60;;
20022;SDS011;10172;42.054;24.546;2022-07-29T15:24:13;4.07;;;2.13;;
20022;SDS011;10172;42.054;24.546;2022-07-29T15:26:39;3.35;;;2.58;;
20022;SDS011;10172;42.054;24.546;2022-07-29T15:29:05;6.18;;;2.17;;
20022;SDS011;10172;42.054;24.546;2022-07-29T15:31:30;3.28;;;2.25;;
20022;SDS011;10172;42.054;24.546;2022-07-29T15:33:55;4.72;;;2.55;;
20022;SDS011;10172;42.054;24.546;2022-07-29T15:36:21;4.20;;;2.10;;
20022;SDS011;10172;42.054;24.546;2022-07-29T15:38:46;3.65;;;2.20;;
20022;SDS011;10172;42.054;24.546;2022-07-29T15:41:15;4.47;;;2.75;;
20022;SDS011;10172;42.054;24.546;2022-07-29T15:43:42;3.45;;;2.13;;